Time;durP1;ratioP1;P1;durP2;ratioP2;P2;SDS_P1;SDS_P2;PMS_P1;PMS_P2;Temp;Humidity;BMP_temperature;BMP_pressure;BME280_temperature;BME280_humidity;BME280_pressure;Samples;Min_cycle;Max_cycle;Signal;HPM_P1;HPM_P2
2022/11/23 00:00:55;;;;;;;6.07;1.70;;;;;;;;;;4996357;28;20505;-45
2022/11/23 00:03:22;;;;;;;2.37;1.80;;;;;;;;;;5002334;28;20435;-45
2022/11/23 00:05:48;;;;;;;11.57;3.00;;;;;;;;;;5002482;28;20416;-44
2022/11/23 00:08:14;;;;;;;6.00;2.13;;;;;;;;;;5001446;28;20923;-44
2022/11/23 00:10:40;;;;;;;5.27;2.40;;;;;;;;;;5001271;28;20768;-44
2022/11/23 00:13:06;;;;;;;1.80;1.70;;;;;;;;;;5002940;28;20440;-45
2022/11/23 00:15:31;;;;;;;3.70;2.03;;;;;;;;;;4995914;28;20471;-44
2022/11/23 00:18:01;;;;;;;5.10;2.37;;;;;;;;;;5003425;28;20417;-45
2022/11/23 00:20:27;;;;;;;4.20;2.20;;;;;;;;;;4998568;28;20416;-45
2022/11/23 00:22:53;;;;;;;4.13;2.10;;;;;;;;;;5000056;28;20425;-44
2022/11/23 00:25:19;;;;;;;3.27;1.87;;;;;;;;;;5001731;28;20460;-44
2022/11/23 00:27:45;;;;;;;6.00;2.30;;;;;;;;;;5000002;28;20409;-44
2022/11/23 00:30:11;;;;;;;4.97;2.57;;;;;;;;;;4997453;28;20418;-44
2022/11/23 00:32:37;;;;;;;5.47;2.10;;;;;;;;;;5005268;28;20426;-44
2022/11/23 00:35:03;;;;;;;6.40;2.40;;;;;;;;;;5001248;28;20468;-44
2022/11/23 00:37:29;;;;;;;7.70;2.53;;;;;;;;;;5003413;28;20425;-44
2022/11/23 00:39:55;;;;;;;6.10;2.43;;;;;;;;;;4998243;28;20410;-44
2022/11/23 00:42:21;;;;;;;2.80;1.90;;;;;;;;;;5000067;28;20409;-44
2022/11/23 00:44:47;;;;;;;7.50;2.03;;;;;;;;;;4999454;28;20525;-44
2022/11/23 00:47:13;;;;;;;3.97;2.20;;;;;;;;;;5001283;28;20794;-44
2022/11/23 00:49:39;;;;;;;2.83;1.50;;;;;;;;;;5006992;28;20839;-44
2022/11/23 00:52:05;;;;;;;12.73;2.87;;;;;;;;;;5006909;28;20786;-45
2022/11/23 00:54:31;;;;;;;7.03;2.07;;;;;;;;;;5001278;28;20465;-45
2022/11/23 00:56:57;;;;;;;5.90;2.20;;;;;;;;;;5005527;28;20448;-48
2022/11/23 00:59:23;;;;;;;4.77;2.10;;;;;;;;;;5006355;28;20414;-46
2022/11/23 01:01:49;;;;;;;3.23;1.77;;;;;;;;;;5021590;28;20416;-48
2022/11/23 01:04:15;;;;;;;3.83;1.70;;;;;;;;;;5004847;28;20449;-47
2022/11/23 01:06:41;;;;;;;8.67;2.10;;;;;;;;;;5005272;28;20421;-47
2022/11/23 01:09:08;;;;;;;3.27;1.80;;;;;;;;;;5001133;28;20416;-48
2022/11/23 01:11:34;;;;;;;1.97;1.80;;;;;;;;;;5005465;28;20415;-45
2022/11/23 01:14:01;;;;;;;4.40;1.90;;;;;;;;;;5006529;28;20937;-47
2022/11/23 01:16:28;;;;;;;4.60;1.93;;;;;;;;;;5003663;28;20458;-46
2022/11/23 01:18:55;;;;;;;3.50;1.87;;;;;;;;;;5003737;28;20421;-46
2022/11/23 01:21:21;;;;;;;5.10;2.20;;;;;;;;;;5009866;28;20406;-45
2022/11/23 01:23:47;;;;;;;7.77;2.10;;;;;;;;;;5003250;28;20770;-45
2022/11/23 01:26:13;;;;;;;5.17;2.03;;;;;;;;;;5003603;28;20431;-46
2022/11/23 01:28:39;;;;;;;2.70;2.00;;;;;;;;;;5003161;28;21168;-47
2022/11/23 01:31:09;;;;;;;7.93;1.63;;;;;;;;;;5008008;28;20416;-47
2022/11/23 01:33:36;;;;;;;6.30;1.77;;;;;;;;;;5002938;28;20513;-48
2022/11/23 01:36:12;;;;;;;4.23;1.60;;;;;;;;;;5000684;28;20563;-46
2022/11/23 01:38:38;;;;;;;6.33;2.33;;;;;;;;;;4996013;28;20423;-47
2022/11/23 01:41:04;;;;;;;3.10;2.10;;;;;;;;;;5002468;28;20415;-46
2022/11/23 01:43:30;;;;;;;5.00;1.90;;;;;;;;;;5005960;28;20446;-45
2022/11/23 01:45:57;;;;;;;4.87;2.10;;;;;;;;;;5004064;28;20414;-46
2022/11/23 01:48:29;;;;;;;3.00;2.00;;;;;;;;;;5006627;28;20428;-46
2022/11/23 01:50:56;;;;;;;5.00;1.73;;;;;;;;;;4997320;28;20983;-46
2022/11/23 01:53:22;;;;;;;4.53;1.50;;;;;;;;;;5005030;28;20979;-47
2022/11/23 01:55:49;;;;;;;7.40;2.53;;;;;;;;;;5000449;28;20826;-46
2022/11/23 01:58:17;;;;;;;3.83;2.77;;;;;;;;;;5003880;28;21205;-47
2022/11/23 02:00:44;;;;;;;5.20;2.00;;;;;;;;;;5000749;28;20408;-47
2022/11/23 02:03:10;;;;;;;6.13;2.03;;;;;;;;;;5002711;28;20477;-46
2022/11/23 02:05:38;;;;;;;7.23;2.03;;;;;;;;;;5003763;28;20454;-45
2022/11/23 02:08:05;;;;;;;5.80;2.13;;;;;;;;;;5003847;28;20418;-45
2022/11/23 02:10:31;;;;;;;6.10;1.53;;;;;;;;;;5001167;28;20433;-47
2022/11/23 02:13:00;;;;;;;3.53;2.00;;;;;;;;;;5007422;28;20435;-46
2022/11/23 02:15:26;;;;;;;3.10;2.23;;;;;;;;;;4999983;28;20466;-47
2022/11/23 02:17:52;;;;;;;3.97;2.00;;;;;;;;;;5001806;28;20506;-47
2022/11/23 02:20:18;;;;;;;3.07;1.60;;;;;;;;;;5002976;28;20438;-46
2022/11/23 02:22:44;;;;;;;8.10;2.40;;;;;;;;;;5001847;28;20499;-47
2022/11/23 02:25:15;;;;;;;3.50;1.87;;;;;;;;;;5002902;28;20476;-47
2022/11/23 02:27:41;;;;;;;4.27;1.93;;;;;;;;;;5002259;28;20418;-47
2022/11/23 02:30:08;;;;;;;4.00;1.90;;;;;;;;;;5005821;28;20425;-47
2022/11/23 02:32:34;;;;;;;5.40;2.07;;;;;;;;;;5000279;28;20422;-45
2022/11/23 02:35:01;;;;;;;4.03;1.80;;;;;;;;;;4998332;28;20971;-46
2022/11/23 02:37:27;;;;;;;1.93;1.80;;;;;;;;;;5007418;28;20491;-46
2022/11/23 02:39:53;;;;;;;3.63;1.53;;;;;;;;;;5004311;28;20433;-46
2022/11/23 02:42:20;;;;;;;2.77;1.50;;;;;;;;;;5004740;28;20427;-47
2022/11/23 02:45:01;;;;;;;5.67;2.20;;;;;;;;;;5001792;28;20884;-46
2022/11/23 02:47:27;;;;;;;3.57;1.80;;;;;;;;;;5003966;28;20426;-46
2022/11/23 02:49:53;;;;;;;3.23;1.90;;;;;;;;;;5001467;28;20451;-46
2022/11/23 02:52:19;;;;;;;3.53;1.77;;;;;;;;;;5002896;28;20411;-47
2022/11/23 02:54:45;;;;;;;2.47;1.70;;;;;;;;;;5004921;28;20511;-46
2022/11/23 02:57:11;;;;;;;2.40;1.80;;;;;;;;;;5000574;28;20415;-45
2022/11/23 02:59:37;;;;;;;2.90;1.53;;;;;;;;;;5002878;28;20823;-47
2022/11/23 03:02:04;;;;;;;6.13;2.00;;;;;;;;;;5005450;28;20502;-47
2022/11/23 03:04:30;;;;;;;4.00;2.40;;;;;;;;;;5000362;28;20554;-46
2022/11/23 03:06:56;;;;;;;1.80;1.70;;;;;;;;;;5004864;28;20807;-45
2022/11/23 03:09:22;;;;;;;8.20;2.00;;;;;;;;;;4999501;28;20419;-46
2022/11/23 03:11:48;;;;;;;6.60;2.10;;;;;;;;;;5004432;28;20422;-46
2022/11/23 03:14:14;;;;;;;4.93;2.00;;;;;;;;;;4998819;28;20440;-48
2022/11/23 03:16:40;;;;;;;2.60;1.90;;;;;;;;;;5000358;28;20481;-47
2022/11/23 03:19:06;;;;;;;2.77;1.87;;;;;;;;;;5001377;28;20407;-45
2022/11/23 03:21:32;;;;;;;2.57;1.50;;;;;;;;;;5004277;28;20415;-46
2022/11/23 03:23:58;;;;;;;3.13;1.53;;;;;;;;;;5002747;28;20453;-48
2022/11/23 03:26:24;;;;;;;3.53;1.50;;;;;;;;;;5005786;28;20484;-46
2022/11/23 03:28:50;;;;;;;7.73;1.90;;;;;;;;;;5004367;28;20445;-47
2022/11/23 03:31:16;;;;;;;5.70;2.00;;;;;;;;;;4996996;28;20422;-48
2022/11/23 03:33:42;;;;;;;7.37;2.07;;;;;;;;;;5004230;28;20450;-46
2022/11/23 03:36:08;;;;;;;5.20;1.83;;;;;;;;;;5001992;28;20837;-46
2022/11/23 03:38:34;;;;;;;5.17;1.87;;;;;;;;;;5004104;28;20518;-46
2022/11/23 03:41:00;;;;;;;1.73;1.60;;;;;;;;;;5000874;28;20436;-45
2022/11/23 03:43:26;;;;;;;5.43;2.10;;;;;;;;;;5003641;28;20497;-47
2022/11/23 03:45:51;;;;;;;3.67;2.00;;;;;;;;;;5000444;28;20969;-45
2022/11/23 03:48:17;;;;;;;3.67;1.67;;;;;;;;;;5002474;28;20445;-46
2022/11/23 03:50:43;;;;;;;4.30;2.67;;;;;;;;;;5004476;28;20422;-45
2022/11/23 03:53:09;;;;;;;6.00;2.10;;;;;;;;;;5000610;28;20956;-48
2022/11/23 03:55:36;;;;;;;9.20;1.97;;;;;;;;;;5002528;28;20472;-46
2022/11/23 03:58:03;;;;;;;2.90;2.30;;;;;;;;;;5000902;28;20412;-47
2022/11/23 04:00:30;;;;;;;6.57;2.27;;;;;;;;;;4999842;28;20422;-46
2022/11/23 04:02:56;;;;;;;3.73;2.00;;;;;;;;;;5001035;28;20476;-47
2022/11/23 04:05:22;;;;;;;2.50;1.93;;;;;;;;;;5006778;28;20423;-48
2022/11/23 04:07:48;;;;;;;3.73;2.07;;;;;;;;;;5003100;28;20413;-46
2022/11/23 04:10:15;;;;;;;6.30;2.23;;;;;;;;;;4998705;28;20489;-46
2022/11/23 04:12:41;;;;;;;7.30;3.10;;;;;;;;;;4999890;28;20423;-46
2022/11/23 04:15:07;;;;;;;2.63;1.70;;;;;;;;;;5001115;28;20462;-47
2022/11/23 04:17:33;;;;;;;2.43;1.73;;;;;;;;;;5004172;28;20408;-46
2022/11/23 04:19:59;;;;;;;4.70;2.30;;;;;;;;;;5002569;28;20908;-47
2022/11/23 04:22:26;;;;;;;4.10;1.83;;;;;;;;;;5005275;28;20418;-47
2022/11/23 04:24:52;;;;;;;3.07;2.27;;;;;;;;;;5005784;28;20439;-46
2022/11/23 04:27:18;;;;;;;3.83;1.80;;;;;;;;;;5000919;28;20501;-45
2022/11/23 04:29:44;;;;;;;3.37;1.73;;;;;;;;;;5007667;28;20421;-46
2022/11/23 04:32:10;;;;;;;4.80;1.80;;;;;;;;;;5005764;28;20422;-46
2022/11/23 04:34:36;;;;;;;4.00;1.73;;;;;;;;;;5007588;28;20471;-48
2022/11/23 04:37:02;;;;;;;2.90;1.80;;;;;;;;;;5000931;28;20406;-46
2022/11/23 04:39:28;;;;;;;3.20;2.13;;;;;;;;;;5006822;28;20406;-46
2022/11/23 04:41:54;;;;;;;2.00;1.80;;;;;;;;;;5003825;28;20409;-48
2022/11/23 04:44:20;;;;;;;2.07;1.63;;;;;;;;;;5004944;28;20817;-46
2022/11/23 04:46:46;;;;;;;3.03;1.93;;;;;;;;;;5007800;28;20420;-47
2022/11/23 04:49:13;;;;;;;2.93;1.90;;;;;;;;;;5003964;28;20412;-45
2022/11/23 04:51:39;;;;;;;4.20;2.27;;;;;;;;;;5004605;28;20446;-44
2022/11/23 04:54:06;;;;;;;2.43;1.87;;;;;;;;;;5003454;28;20464;-44
2022/11/23 04:56:32;;;;;;;5.50;2.00;;;;;;;;;;5004203;28;20972;-43
2022/11/23 04:58:57;;;;;;;2.60;1.57;;;;;;;;;;5002932;28;20425;-43
2022/11/23 05:01:23;;;;;;;2.80;2.00;;;;;;;;;;5009208;28;20407;-43
2022/11/23 05:03:49;;;;;;;4.00;2.23;;;;;;;;;;5021246;28;20957;-44
2022/11/23 05:06:15;;;;;;;4.57;1.90;;;;;;;;;;5001478;28;20467;-44
2022/11/23 05:08:42;;;;;;;5.37;2.13;;;;;;;;;;5002516;28;20467;-45
2022/11/23 05:11:07;;;;;;;2.50;2.30;;;;;;;;;;5003303;28;20421;-45
2022/11/23 05:13:33;;;;;;;2.20;2.00;;;;;;;;;;5006257;28;20942;-47
2022/11/23 05:15:59;;;;;;;3.57;1.97;;;;;;;;;;5005058;28;20905;-44
2022/11/23 05:18:25;;;;;;;3.20;2.07;;;;;;;;;;5007709;28;20420;-43
2022/11/23 05:20:51;;;;;;;2.33;2.13;;;;;;;;;;5004241;28;20504;-43
2022/11/23 05:23:17;;;;;;;3.10;2.37;;;;;;;;;;4999328;28;20445;-44
2022/11/23 05:25:43;;;;;;;3.87;2.10;;;;;;;;;;5006288;28;20945;-44
2022/11/23 05:28:14;;;;;;;4.67;2.13;;;;;;;;;;5004206;28;20457;-43
2022/11/23 05:30:40;;;;;;;18.73;3.57;;;;;;;;;;5005546;28;20516;-43
2022/11/23 05:33:06;;;;;;;2.77;1.90;;;;;;;;;;5002716;28;20871;-44
2022/11/23 05:35:32;;;;;;;5.57;2.23;;;;;;;;;;5005076;28;20876;-44
2022/11/23 05:37:59;;;;;;;9.23;2.77;;;;;;;;;;5003339;28;20829;-43
2022/11/23 05:40:25;;;;;;;11.80;2.47;;;;;;;;;;5002596;28;20414;-43
2022/11/23 05:42:57;;;;;;;5.97;2.87;;;;;;;;;;5007102;28;20410;-43
2022/11/23 05:45:23;;;;;;;3.60;2.10;;;;;;;;;;5002581;28;20522;-43
2022/11/23 05:47:50;;;;;;;3.60;1.93;;;;;;;;;;5002724;28;20415;-44
2022/11/23 05:50:16;;;;;;;2.80;2.07;;;;;;;;;;5003563;28;20475;-43
2022/11/23 05:52:42;;;;;;;5.23;2.33;;;;;;;;;;5000326;28;20816;-43
2022/11/23 05:55:08;;;;;;;4.27;2.03;;;;;;;;;;5002399;28;20474;-44
2022/11/23 05:57:34;;;;;;;7.07;2.10;;;;;;;;;;5007921;28;20430;-44
2022/11/23 06:00:00;;;;;;;6.80;2.33;;;;;;;;;;5006548;28;20779;-43
2022/11/23 06:02:26;;;;;;;4.93;2.47;;;;;;;;;;5000305;28;20415;-44
2022/11/23 06:04:52;;;;;;;3.50;1.90;;;;;;;;;;4999614;28;20788;-43
2022/11/23 06:07:18;;;;;;;5.53;1.50;;;;;;;;;;5000582;28;20455;-44
2022/11/23 06:09:44;;;;;;;5.33;2.00;;;;;;;;;;5001286;28;20489;-44
2022/11/23 06:12:10;;;;;;;3.73;2.07;;;;;;;;;;5002695;28;20410;-45
2022/11/23 06:14:36;;;;;;;5.00;2.00;;;;;;;;;;5019826;28;21066;-46
2022/11/23 06:17:02;;;;;;;10.63;2.30;;;;;;;;;;5004157;28;20416;-43
2022/11/23 06:19:28;;;;;;;2.30;2.10;;;;;;;;;;4998393;28;20490;-43
2022/11/23 06:21:56;;;;;;;6.40;2.17;;;;;;;;;;4997855;28;20419;-45
2022/11/23 06:24:22;;;;;;;2.50;1.80;;;;;;;;;;5003423;28;20496;-44
2022/11/23 06:26:48;;;;;;;4.57;2.17;;;;;;;;;;5003872;28;20410;-43
2022/11/23 06:29:14;;;;;;;4.07;1.90;;;;;;;;;;5002951;28;20418;-44
2022/11/23 06:31:40;;;;;;;4.87;1.93;;;;;;;;;;5002642;28;20512;-43
2022/11/23 06:34:06;;;;;;;5.83;2.00;;;;;;;;;;5002908;28;20452;-43
2022/11/23 06:36:31;;;;;;;11.07;2.60;;;;;;;;;;4997220;28;20472;-46
2022/11/23 06:38:57;;;;;;;4.70;2.70;;;;;;;;;;5004245;28;20474;-44
2022/11/23 06:41:24;;;;;;;9.00;2.47;;;;;;;;;;5001094;28;20414;-43
2022/11/23 06:43:50;;;;;;;6.80;2.00;;;;;;;;;;5001468;28;21200;-44
2022/11/23 06:46:16;;;;;;;3.13;2.10;;;;;;;;;;5001619;28;20423;-44
2022/11/23 06:48:46;;;;;;;6.70;3.17;;;;;;;;;;4994854;28;20445;-43
2022/11/23 06:51:12;;;;;;;8.60;2.67;;;;;;;;;;5001069;28;20414;-44
2022/11/23 06:53:38;;;;;;;3.00;2.27;;;;;;;;;;5000711;28;20472;-43
2022/11/23 06:56:04;;;;;;;6.87;2.63;;;;;;;;;;5006038;28;20476;-44
2022/11/23 06:58:30;;;;;;;6.00;2.93;;;;;;;;;;5000022;28;20534;-43
2022/11/23 07:01:04;;;;;;;4.60;2.20;;;;;;;;;;4998365;28;20477;-44
2022/11/23 07:03:30;;;;;;;5.37;2.80;;;;;;;;;;4992960;28;20438;-45
2022/11/23 07:05:56;;;;;;;4.03;2.27;;;;;;;;;;5000485;28;20416;-46
2022/11/23 07:08:22;;;;;;;6.43;2.30;;;;;;;;;;5003008;28;20947;-45
2022/11/23 07:10:48;;;;;;;6.30;2.83;;;;;;;;;;5000715;28;20998;-46
2022/11/23 07:13:15;;;;;;;3.30;2.17;;;;;;;;;;5004089;28;20440;-46
2022/11/23 07:15:41;;;;;;;8.30;3.00;;;;;;;;;;4998909;28;20461;-44
2022/11/23 07:18:09;;;;;;;9.27;2.30;;;;;;;;;;4996386;28;20413;-43
2022/11/23 07:20:35;;;;;;;6.40;2.33;;;;;;;;;;5003773;28;20410;-46
2022/11/23 07:23:05;;;;;;;5.67;2.20;;;;;;;;;;5000727;28;20791;-46
2022/11/23 07:25:32;;;;;;;14.33;2.60;;;;;;;;;;4992690;28;20511;-44
2022/11/23 07:27:58;;;;;;;7.63;2.43;;;;;;;;;;5000348;28;20772;-43
2022/11/23 07:30:25;;;;;;;12.43;2.60;;;;;;;;;;5001434;28;20422;-44
2022/11/23 07:32:52;;;;;;;6.53;2.13;;;;;;;;;;4998818;28;21054;-43
2022/11/23 07:35:18;;;;;;;3.53;1.90;;;;;;;;;;5001530;28;20472;-45
2022/11/23 07:37:44;;;;;;;3.80;1.70;;;;;;;;;;5002696;28;20453;-44
2022/11/23 07:40:10;;;;;;;4.50;1.97;;;;;;;;;;4998109;28;20415;-44
2022/11/23 07:42:36;;;;;;;4.93;2.00;;;;;;;;;;5000575;28;20918;-45
2022/11/23 07:45:03;;;;;;;9.07;2.47;;;;;;;;;;5000106;28;20593;-44
2022/11/23 07:47:29;;;;;;;4.47;1.47;;;;;;;;;;4999022;28;20481;-44
2022/11/23 07:49:55;;;;;;;7.00;2.20;;;;;;;;;;4997999;28;20996;-46
2022/11/23 07:52:21;;;;;;;4.67;2.10;;;;;;;;;;5003643;28;20424;-44
2022/11/23 07:54:47;;;;;;;2.87;1.70;;;;;;;;;;5001027;28;20469;-45
2022/11/23 07:57:13;;;;;;;6.10;2.30;;;;;;;;;;4998121;28;20413;-45
2022/11/23 07:59:39;;;;;;;5.13;1.63;;;;;;;;;;5002985;28;20409;-44
2022/11/23 08:02:05;;;;;;;4.73;1.90;;;;;;;;;;5004137;28;20440;-43
2022/11/23 08:04:31;;;;;;;5.30;1.97;;;;;;;;;;5007305;28;20425;-43
2022/11/23 08:06:57;;;;;;;3.53;1.90;;;;;;;;;;5005317;28;20430;-43
2022/11/23 08:09:23;;;;;;;5.10;2.33;;;;;;;;;;5005279;28;20407;-43
2022/11/23 08:11:49;;;;;;;3.07;1.93;;;;;;;;;;5006780;28;20421;-45
2022/11/23 08:14:15;;;;;;;3.57;1.83;;;;;;;;;;4999361;28;20465;-43
2022/11/23 08:16:41;;;;;;;2.97;1.70;;;;;;;;;;5007222;28;20508;-44
2022/11/23 08:19:07;;;;;;;5.93;2.10;;;;;;;;;;5004450;28;20931;-46
2022/11/23 08:21:33;;;;;;;6.40;2.90;;;;;;;;;;5006508;28;20818;-43
2022/11/23 08:23:59;;;;;;;6.67;1.63;;;;;;;;;;5003781;28;20524;-44
2022/11/23 08:26:25;;;;;;;4.33;1.93;;;;;;;;;;5005671;28;21024;-43
2022/11/23 08:28:51;;;;;;;6.00;2.30;;;;;;;;;;5002250;28;20410;-45
2022/11/23 08:31:18;;;;;;;5.77;2.00;;;;;;;;;;5004790;28;20949;-43
2022/11/23 08:33:44;;;;;;;4.40;1.83;;;;;;;;;;5006119;28;20438;-44
2022/11/23 08:36:10;;;;;;;5.50;1.87;;;;;;;;;;5002090;28;20462;-43
2022/11/23 08:38:36;;;;;;;4.33;1.80;;;;;;;;;;5004696;28;20415;-44
2022/11/23 08:41:02;;;;;;;5.27;1.70;;;;;;;;;;5003270;28;20454;-43
2022/11/23 08:43:28;;;;;;;4.67;2.07;;;;;;;;;;5003275;28;20487;-44
2022/11/23 08:45:55;;;;;;;4.57;2.43;;;;;;;;;;5003871;28;20437;-44
2022/11/23 08:48:21;;;;;;;4.90;2.23;;;;;;;;;;5004142;28;20473;-44
2022/11/23 08:50:47;;;;;;;5.50;2.27;;;;;;;;;;5004202;28;20430;-44
2022/11/23 08:53:13;;;;;;;6.13;2.37;;;;;;;;;;5000473;28;20451;-46
2022/11/23 08:55:39;;;;;;;3.40;1.67;;;;;;;;;;5001010;28;20480;-44
2022/11/23 08:58:07;;;;;;;4.27;1.67;;;;;;;;;;5002390;28;20418;-43
2022/11/23 09:00:33;;;;;;;5.63;1.70;;;;;;;;;;5006006;28;20403;-43
2022/11/23 09:02:59;;;;;;;5.83;3.20;;;;;;;;;;5004163;28;20470;-44
2022/11/23 09:05:25;;;;;;;6.63;2.40;;;;;;;;;;5006156;28;20487;-43
2022/11/23 09:07:51;;;;;;;7.53;3.70;;;;;;;;;;5003024;28;20556;-44
2022/11/23 09:10:17;;;;;;;9.07;2.10;;;;;;;;;;4997996;28;20912;-45
2022/11/23 09:12:43;;;;;;;7.07;2.00;;;;;;;;;;5007280;28;20432;-45
2022/11/23 09:15:09;;;;;;;5.90;2.53;;;;;;;;;;5003458;28;20475;-44
2022/11/23 09:17:35;;;;;;;5.27;2.20;;;;;;;;;;5004920;28;20408;-43
2022/11/23 09:20:01;;;;;;;3.73;1.80;;;;;;;;;;5002412;28;20390;-43
2022/11/23 09:22:27;;;;;;;3.20;1.80;;;;;;;;;;5005000;28;20488;-43
2022/11/23 09:24:53;;;;;;;5.03;2.00;;;;;;;;;;5002274;28;20409;-43
2022/11/23 09:27:19;;;;;;;2.70;1.70;;;;;;;;;;5004055;28;20425;-44
2022/11/23 09:29:45;;;;;;;5.90;1.87;;;;;;;;;;5006002;28;20766;-43
2022/11/23 09:32:11;;;;;;;4.90;2.30;;;;;;;;;;5001615;28;20415;-44
2022/11/23 09:34:37;;;;;;;4.47;1.77;;;;;;;;;;5003736;28;20978;-43
2022/11/23 09:37:03;;;;;;;6.10;1.93;;;;;;;;;;5006311;28;20955;-44
2022/11/23 09:39:29;;;;;;;7.90;1.70;;;;;;;;;;5002262;28;20419;-43
2022/11/23 09:41:55;;;;;;;2.60;1.80;;;;;;;;;;5005676;28;20418;-43
2022/11/23 09:44:40;;;;;;;2.80;1.70;;;;;;;;;;5002888;28;20945;-44
2022/11/23 09:47:24;;;;;;;8.13;2.20;;;;;;;;;;5006496;28;20480;-43
2022/11/23 09:50:11;;;;;;;4.03;2.00;;;;;;;;;;5003207;28;20423;-43
2022/11/23 09:52:43;;;;;;;5.50;1.80;;;;;;;;;;4995421;28;20398;-43
2022/11/23 09:55:15;;;;;;;5.07;2.47;;;;;;;;;;5004498;28;20551;-43
2022/11/23 09:57:43;;;;;;;7.57;2.40;;;;;;;;;;5005113;28;20878;-43
2022/11/23 10:00:15;;;;;;;8.87;2.30;;;;;;;;;;5001272;28;20423;-43
2022/11/23 10:02:41;;;;;;;3.60;2.07;;;;;;;;;;5005318;28;20394;-43
2022/11/23 10:05:10;;;;;;;4.93;1.73;;;;;;;;;;5002540;28;20772;-43
2022/11/23 10:07:51;;;;;;;7.37;1.97;;;;;;;;;;4996970;28;20940;-46
2022/11/23 10:10:26;;;;;;;3.27;1.67;;;;;;;;;;5004721;28;20475;-44
2022/11/23 10:13:04;;;;;;;7.17;2.30;;;;;;;;;;5001451;28;20466;-44
2022/11/23 10:15:35;;;;;;;6.07;2.03;;;;;;;;;;4997871;28;20466;-44
2022/11/23 10:18:18;;;;;;;8.57;2.57;;;;;;;;;;5002429;28;20425;-43
2022/11/23 10:20:47;;;;;;;5.47;2.30;;;;;;;;;;4989337;28;20386;-44
2022/11/23 10:23:20;;;;;;;3.83;2.23;;;;;;;;;;5008533;28;20448;-43
2022/11/23 10:25:48;;;;;;;6.47;2.53;;;;;;;;;;5005625;28;20393;-44
2022/11/23 10:28:19;;;;;;;7.53;2.83;;;;;;;;;;5002993;28;20936;-44
2022/11/23 10:31:04;;;;;;;10.50;2.40;;;;;;;;;;4997841;28;20917;-45
2022/11/23 10:33:31;;;;;;;9.00;2.40;;;;;;;;;;4995948;28;20444;-44
2022/11/23 10:35:57;;;;;;;3.43;1.73;;;;;;;;;;5000678;28;20457;-44
2022/11/23 10:38:27;;;;;;;6.00;2.43;;;;;;;;;;5003838;28;20476;-44
2022/11/23 10:41:02;;;;;;;3.43;1.80;;;;;;;;;;5003334;28;20411;-44
2022/11/23 10:43:34;;;;;;;4.50;2.40;;;;;;;;;;5004877;28;20951;-44
2022/11/23 10:46:19;;;;;;;6.23;2.70;;;;;;;;;;5003399;28;20804;-44
2022/11/23 10:48:46;;;;;;;7.50;2.77;;;;;;;;;;4994197;28;20449;-44
2022/11/23 10:51:23;;;;;;;9.13;2.57;;;;;;;;;;5068880;28;20520;-44
2022/11/23 10:53:55;;;;;;;7.50;2.07;;;;;;;;;;5068850;28;20910;-44
2022/11/23 10:56:21;;;;;;;8.30;2.30;;;;;;;;;;5070605;28;20390;-45
2022/11/23 10:58:50;;;;;;;3.87;1.73;;;;;;;;;;5076260;28;20403;-45
2022/11/23 11:01:24;;;;;;;4.07;1.70;;;;;;;;;;5070734;28;20378;-44
2022/11/23 11:03:55;;;;;;;4.40;1.97;;;;;;;;;;5068117;28;20423;-45
2022/11/23 11:06:33;;;;;;;6.80;2.20;;;;;;;;;;5074589;28;20418;-43
2022/11/23 11:09:17;;;;;;;9.17;2.90;;;;;;;;;;5071146;28;20401;-44
2022/11/23 11:11:47;;;;;;;6.30;2.00;;;;;;;;;;5066190;28;20816;-45
2022/11/23 11:14:22;;;;;;;6.60;2.27;;;;;;;;;;5068410;28;20414;-45
2022/11/23 11:16:49;;;;;;;7.43;2.27;;;;;;;;;;5065945;28;20413;-44
2022/11/23 11:19:29;;;;;;;4.97;2.17;;;;;;;;;;5069302;28;20843;-44
2022/11/23 11:21:55;;;;;;;5.20;1.97;;;;;;;;;;5073112;28;20419;-44
2022/11/23 11:24:26;;;;;;;8.60;3.10;;;;;;;;;;5069092;28;20472;-44
2022/11/23 11:27:03;;;;;;;4.80;1.97;;;;;;;;;;5068365;28;20956;-45
2022/11/23 11:29:33;;;;;;;6.30;2.50;;;;;;;;;;5057738;28;20427;-44
2022/11/23 11:32:05;;;;;;;6.60;2.20;;;;;;;;;;5064028;28;20971;-44
2022/11/23 11:34:36;;;;;;;6.70;2.40;;;;;;;;;;5067738;28;20783;-45
2022/11/23 11:37:17;;;;;;;2.60;1.90;;;;;;;;;;5066128;28;20381;-45
2022/11/23 11:39:49;;;;;;;5.17;1.93;;;;;;;;;;5065284;28;20391;-45
2022/11/23 11:42:20;;;;;;;5.53;2.00;;;;;;;;;;5076459;28;20739;-45
2022/11/23 11:44:47;;;;;;;7.40;2.20;;;;;;;;;;5067867;28;20426;-44
2022/11/23 11:47:34;;;;;;;4.07;2.00;;;;;;;;;;5072082;28;20873;-45
2022/11/23 11:50:01;;;;;;;5.73;2.90;;;;;;;;;;5067087;28;20463;-44
2022/11/23 11:52:34;;;;;;;4.57;2.07;;;;;;;;;;5068098;28;20494;-45
2022/11/23 11:55:11;;;;;;;5.83;3.23;;;;;;;;;;5067412;28;20450;-44
2022/11/23 11:57:54;;;;;;;6.47;2.37;;;;;;;;;;5064687;28;20412;-44
2022/11/23 12:00:20;;;;;;;5.93;2.00;;;;;;;;;;5067148;28;20423;-44
2022/11/23 12:02:58;;;;;;;9.87;3.03;;;;;;;;;;5053740;28;20420;-44
2022/11/23 12:05:26;;;;;;;3.33;2.47;;;;;;;;;;5053307;28;20745;-45
2022/11/23 12:08:01;;;;;;;5.73;2.83;;;;;;;;;;5057793;28;20743;-44
2022/11/23 12:10:29;;;;;;;6.17;2.27;;;;;;;;;;5053961;28;20994;-44
2022/11/23 12:12:55;;;;;;;3.30;2.23;;;;;;;;;;5053325;28;20389;-45
2022/11/23 12:15:27;;;;;;;7.57;2.80;;;;;;;;;;5053807;28;20421;-44
2022/11/23 12:18:12;;;;;;;6.43;2.17;;;;;;;;;;5055089;28;20384;-44
2022/11/23 12:20:57;;;;;;;6.03;2.50;;;;;;;;;;5046661;28;20392;-44
2022/11/23 12:23:41;;;;;;;5.00;2.43;;;;;;;;;;5051200;28;20444;-44
2022/11/23 12:26:16;;;;;;;4.10;2.40;;;;;;;;;;5053082;28;20498;-44
2022/11/23 12:28:54;;;;;;;10.13;3.97;;;;;;;;;;5055915;28;20495;-44
2022/11/23 12:31:37;;;;;;;5.53;2.47;;;;;;;;;;5052785;28;20417;-45
2022/11/23 12:34:06;;;;;;;4.80;2.20;;;;;;;;;;5053916;28;20429;-44
2022/11/23 12:36:42;;;;;;;6.17;2.53;;;;;;;;;;5051311;28;20443;-45
2022/11/23 12:39:15;;;;;;;7.07;2.43;;;;;;;;;;5053036;28;20484;-44
2022/11/23 12:41:47;;;;;;;5.87;2.20;;;;;;;;;;5045112;28;20760;-44
2022/11/23 12:44:16;;;;;;;6.23;2.77;;;;;;;;;;5053045;28;20448;-45
2022/11/23 12:46:53;;;;;;;5.67;3.07;;;;;;;;;;5053065;28;20483;-44
2022/11/23 12:49:29;;;;;;;10.13;2.50;;;;;;;;;;5052452;28;20470;-46
2022/11/23 12:52:13;;;;;;;4.03;1.87;;;;;;;;;;5052919;28;20409;-43
2022/11/23 12:54:42;;;;;;;5.33;2.50;;;;;;;;;;5046327;28;20423;-44
2022/11/23 12:57:14;;;;;;;11.27;2.47;;;;;;;;;;5053184;28;20504;-45
2022/11/23 12:59:55;;;;;;;5.87;2.37;;;;;;;;;;5052865;28;20403;-43
2022/11/23 13:02:42;;;;;;;6.33;2.50;;;;;;;;;;5052773;28;20410;-44
2022/11/23 13:05:23;;;;;;;9.53;2.43;;;;;;;;;;5052712;28;20445;-44
2022/11/23 13:07:49;;;;;;;7.63;2.47;;;;;;;;;;5052708;28;20431;-44
2022/11/23 13:10:34;;;;;;;6.50;2.13;;;;;;;;;;5051961;28;20465;-46
2022/11/23 13:13:26;;;;;;;4.97;2.13;;;;;;;;;;5046453;28;20432;-44
2022/11/23 13:15:52;;;;;;;6.23;2.40;;;;;;;;;;5040865;28;20426;-44
2022/11/23 13:18:34;;;;;;;8.70;2.13;;;;;;;;;;5051959;28;20451;-44
2022/11/23 13:21:06;;;;;;;5.30;2.10;;;;;;;;;;5045524;28;20456;-44
2022/11/23 13:23:39;;;;;;;3.70;2.03;;;;;;;;;;5050195;28;20435;-45
2022/11/23 13:26:12;;;;;;;3.00;2.20;;;;;;;;;;5043771;28;20414;-44
2022/11/23 13:28:38;;;;;;;5.63;2.77;;;;;;;;;;5057863;28;20434;-44
2022/11/23 13:31:16;;;;;;;8.20;2.47;;;;;;;;;;5048704;28;20888;-44
2022/11/23 13:33:43;;;;;;;7.80;2.60;;;;;;;;;;5053758;28;20439;-44
2022/11/23 13:36:10;;;;;;;2.97;1.83;;;;;;;;;;5052151;28;20918;-45
2022/11/23 13:38:45;;;;;;;4.53;2.53;;;;;;;;;;5052224;28;20409;-46
2022/11/23 13:41:30;;;;;;;4.90;2.37;;;;;;;;;;5049555;28;20526;-45
2022/11/23 13:43:56;;;;;;;4.23;2.00;;;;;;;;;;5052117;28;20459;-45
2022/11/23 13:46:28;;;;;;;11.10;2.33;;;;;;;;;;5052516;28;20413;-45
2022/11/23 13:48:57;;;;;;;9.30;2.80;;;;;;;;;;5053603;28;20398;-44
2022/11/23 13:51:25;;;;;;;9.30;2.37;;;;;;;;;;5051784;28;20431;-44
2022/11/23 13:53:57;;;;;;;4.27;3.23;;;;;;;;;;5051939;28;20469;-45
2022/11/23 13:56:29;;;;;;;4.27;2.70;;;;;;;;;;5050130;28;20453;-44
2022/11/23 13:59:18;;;;;;;9.73;3.60;;;;;;;;;;5054738;28;20416;-45
2022/11/23 14:01:59;;;;;;;6.80;2.47;;;;;;;;;;5046017;28;20523;-44
2022/11/23 14:04:26;;;;;;;4.03;2.03;;;;;;;;;;5051899;28;20426;-43
2022/11/23 14:07:11;;;;;;;6.17;3.07;;;;;;;;;;5052035;28;20403;-44
2022/11/23 14:09:51;;;;;;;9.97;2.53;;;;;;;;;;5049895;28;20485;-44
2022/11/23 14:12:21;;;;;;;5.27;2.10;;;;;;;;;;5047317;28;20415;-43
2022/11/23 14:15:06;;;;;;;6.57;2.57;;;;;;;;;;5056557;28;20388;-44
2022/11/23 14:17:45;;;;;;;6.00;2.40;;;;;;;;;;5042159;28;20410;-43
2022/11/23 14:20:18;;;;;;;4.23;2.50;;;;;;;;;;5051707;28;20450;-44
2022/11/23 14:22:44;;;;;;;7.20;2.87;;;;;;;;;;5051176;28;20455;-43
2022/11/23 14:25:22;;;;;;;3.07;2.40;;;;;;;;;;5049536;28;20418;-43
2022/11/23 14:28:06;;;;;;;9.20;2.20;;;;;;;;;;5050336;28;20464;-44
2022/11/23 14:30:40;;;;;;;5.20;2.27;;;;;;;;;;5048593;28;20418;-43
2022/11/23 14:33:21;;;;;;;7.70;3.13;;;;;;;;;;5054376;28;20428;-44
2022/11/23 14:35:53;;;;;;;3.83;2.20;;;;;;;;;;5051482;28;20413;-43
2022/11/23 14:38:30;;;;;;;5.60;2.37;;;;;;;;;;5053528;28;20778;-44
2022/11/23 14:41:07;;;;;;;3.60;2.57;;;;;;;;;;5050656;28;20587;-45
2022/11/23 14:43:35;;;;;;;5.90;2.10;;;;;;;;;;5043845;28;20561;-44
2022/11/23 14:46:02;;;;;;;2.80;2.30;;;;;;;;;;5051380;28;20419;-44
2022/11/23 14:48:30;;;;;;;6.80;3.00;;;;;;;;;;5042560;28;20423;-43
2022/11/23 14:50:58;;;;;;;5.37;3.10;;;;;;;;;;5046421;28;20853;-44
2022/11/23 14:53:27;;;;;;;5.03;2.27;;;;;;;;;;5050424;28;20425;-44